Airfield :
LOGIN :

Register | Disclaimer

   EN    FR    IT 

 










Legend :    VFR   Marginal VFR   IFR   Intensive IFR   Very Intensive IFR
Visi :
Ceiling :
>= 8 km
>= 3000ft
5 to 8 km
1000 to 3000 ft
1500m to 5 km
500 to 1000 ft
800 to 1500m
200 to 500 ft
< 800m
< 200 ft
Symbols :   Thunderstorms  Fog  Heavy snow  Heavy precipitations  Wind > 20 kt
SIGMETs :     Misc.  Thunderstorms  Icing  Turbulence  Mountain Waves  Volcanic Ashes






- Airport Elevation : 614 ft
- IATA code : CRL


EBCI - Charleroi

CURRENT METAR :
  • 180550Z 16003KT 110V210 9999 SCT035 16/14 Q1013 NOSIG

EXPIRED METARs :
  • 180520Z 16005KT CAVOK 16/14 Q1013 NOSIG
  • 180450Z 16004KT 140V200 CAVOK 16/14 Q1013 NOSIG
  • 180420Z 15003KT 120V180 CAVOK 15/13 Q1013 NOSIG
  • 180350Z 15003KT CAVOK 15/13 Q1013 NOSIG
  • 180320Z 15005KT CAVOK 15/13 Q1013 NOSIG
  • 180250Z 15004KT CAVOK 15/12 Q1013 NOSIG
  • 180220Z 14004KT CAVOK 15/12 Q1013 NOSIG
  • 180150Z 13005KT CAVOK 15/12 Q1013 NOSIG
  • 180120Z 13005KT CAVOK 15/11 Q1014 NOSIG

TAF TAF EBCI
Valid from the 18 at 06:00 until the 19 at 12:00 UTC


180500Z 1806/1912 VRB03KT 8000 BKN040
PROB40
TEMPO 1810/1819 VRB18G36KT 2000 SHRA TSRAGR SCT010 BKN018CB
BECMG 1815/1817 01010KT
BECMG 1818/1820 SCT006 BKN011
TEMPO 1821/1909 4000 BR BKN006
PROB30 1901/1906 0850 FG BKN002
BECMG 1908/1910 SCT020



MET'MAP, your aeronautical weather chart ! - Copyright ORBIFLY December 2007 - Disclaimer

ORBIFLY MET'MAP TEAM :

Programming & Development : Alexandra Zaïnal
Original concept : Baudouin d'Aumeries
Technical & hardware support : Manuel Goepfert
Assistance : Marc-Olivier Méhu




SOURCES & CREDITS :

   NOAA